createdAt,value
2018-09-06T00:00:35.399Z,7.03
2018-09-06T00:03:02.315Z,7.60
2018-09-06T00:05:29.255Z,8.13
2018-09-06T00:07:56.234Z,7.60
2018-09-06T00:10:23.203Z,7.70
2018-09-06T00:12:50.144Z,7.53
2018-09-06T00:15:17.095Z,7.60
2018-09-06T00:17:44.079Z,7.60
2018-09-06T00:20:11.353Z,6.97
2018-09-06T00:22:38.285Z,7.43
2018-09-06T00:25:05.241Z,7.67
2018-09-06T00:27:32.181Z,7.50
2018-09-06T00:29:59.139Z,7.10
2018-09-06T00:32:26.063Z,7.30
2018-09-06T00:34:52.979Z,7.20
2018-09-06T00:37:19.901Z,6.80
2018-09-06T00:39:46.830Z,8.00
2018-09-06T00:42:13.768Z,8.37
2018-09-06T00:44:40.762Z,7.33
2018-09-06T00:47:07.713Z,7.90
2018-09-06T00:49:34.670Z,7.50
2018-09-06T00:52:01.600Z,8.00
2018-09-06T00:54:28.570Z,8.67
2018-09-06T00:56:55.513Z,8.90
2018-09-06T00:59:24.736Z,7.83
2018-09-06T01:01:51.993Z,8.00
2018-09-06T01:04:18.901Z,8.70
2018-09-06T01:06:45.861Z,9.40
2018-09-06T01:09:12.793Z,9.40
2018-09-06T01:11:39.708Z,8.60
2018-09-06T01:14:06.660Z,8.70
2018-09-06T01:16:33.650Z,9.83
2018-09-06T01:19:00.574Z,8.70
2018-09-06T01:21:27.523Z,10.33
2018-09-06T01:23:54.473Z,10.77
2018-09-06T01:26:28.247Z,10.13
2018-09-06T01:28:55.170Z,11.20
2018-09-06T01:31:22.322Z,11.23
2018-09-06T01:33:49.352Z,11.87
2018-09-06T01:36:22.159Z,10.67
2018-09-06T01:38:49.054Z,11.83
2018-09-06T01:41:15.998Z,11.80
2018-09-06T01:43:42.920Z,12.17
2018-09-06T01:46:16.526Z,10.73
2018-09-06T01:48:43.888Z,11.93
2018-09-06T01:51:10.813Z,10.97
2018-09-06T01:53:37.710Z,12.60
2018-09-06T01:56:04.694Z,12.10
2018-09-06T01:58:31.644Z,11.63
2018-09-06T02:00:58.589Z,12.97
2018-09-06T02:03:25.532Z,12.60
2018-09-06T02:05:52.445Z,13.23
2018-09-06T02:08:19.364Z,14.00
2018-09-06T02:10:46.298Z,14.70
2018-09-06T02:13:13.184Z,14.27
2018-09-06T02:15:40.090Z,13.80
2018-09-06T02:18:07.012Z,13.90
2018-09-06T02:20:34.179Z,14.77
2018-09-06T02:23:01.107Z,13.47
2018-09-06T02:25:28.036Z,13.53
2018-09-06T02:27:54.951Z,14.27
2018-09-06T02:30:21.837Z,13.70
2018-09-06T02:32:48.753Z,14.90
2018-09-06T02:35:15.658Z,14.83
2018-09-06T02:37:42.566Z,16.23
2018-09-06T02:40:14.055Z,13.57
2018-09-06T02:42:41.025Z,13.70
2018-09-06T02:45:07.913Z,16.47
2018-09-06T02:50:26.133Z,14.70
2018-09-06T02:52:53.773Z,16.93
2018-09-06T02:55:21.702Z,15.97
2018-09-06T02:57:49.006Z,17.23
2018-09-06T03:00:19.534Z,16.70
2018-09-06T03:02:46.441Z,14.23
2018-09-06T03:05:13.354Z,14.83
2018-09-06T03:07:40.277Z,16.63
2018-09-06T03:10:07.189Z,17.03
2018-09-06T03:12:34.101Z,17.87
2018-09-06T03:15:01.021Z,15.53
2018-09-06T03:17:27.928Z,17.17
2018-09-06T03:19:54.819Z,16.83
2018-09-06T03:22:21.740Z,17.00
2018-09-06T03:24:48.658Z,17.37
2018-09-06T03:27:15.587Z,19.00
2018-09-06T03:29:42.508Z,17.70
2018-09-06T03:32:09.417Z,18.20
2018-09-06T03:34:36.340Z,18.73
2018-09-06T03:37:03.234Z,17.97
2018-09-06T03:39:30.134Z,18.37
2018-09-06T03:41:57.028Z,19.37
2018-09-06T03:44:23.925Z,18.97
2018-09-06T03:46:50.829Z,19.30
2018-09-06T03:49:17.737Z,16.87
2018-09-06T03:51:44.650Z,17.70
2018-09-06T03:54:11.540Z,17.07
2018-09-06T03:56:38.428Z,20.13
2018-09-06T03:59:05.396Z,19.23
2018-09-06T04:01:32.300Z,20.50
2018-09-06T04:03:59.210Z,23.30
2018-09-06T04:06:26.084Z,19.63
2018-09-06T04:08:52.977Z,20.13
2018-09-06T04:11:19.843Z,21.57
2018-09-06T04:13:46.723Z,18.60
2018-09-06T04:16:13.663Z,19.63
2018-09-06T04:18:40.528Z,20.53
2018-09-06T04:21:07.455Z,19.50
2018-09-06T04:23:34.368Z,20.77
2018-09-06T04:26:01.281Z,19.87
2018-09-06T04:28:28.209Z,21.93
2018-09-06T04:30:55.133Z,19.30
2018-09-06T04:33:22.008Z,19.40
2018-09-06T04:35:48.941Z,19.17
2018-09-06T04:38:15.835Z,20.33
2018-09-06T04:40:42.713Z,19.73
2018-09-06T04:43:09.744Z,21.17
2018-09-06T04:45:36.630Z,18.93
2018-09-06T04:48:03.516Z,21.47
2018-09-06T04:50:30.413Z,20.70
2018-09-06T04:52:57.285Z,20.00
2018-09-06T04:55:24.253Z,20.63
2018-09-06T04:57:51.053Z,20.10
2018-09-06T05:00:17.952Z,21.33
2018-09-06T05:02:44.836Z,21.27
2018-09-06T05:05:11.735Z,20.80
2018-09-06T05:07:38.631Z,20.30
2018-09-06T05:10:06.072Z,23.13
2018-09-06T05:12:32.954Z,23.03
2018-09-06T05:14:59.852Z,22.80
2018-09-06T05:17:26.725Z,23.37
2018-09-06T05:19:53.620Z,21.93
2018-09-06T05:22:20.508Z,23.97
2018-09-06T05:24:47.465Z,24.50
2018-09-06T05:27:14.344Z,24.30
2018-09-06T05:29:41.224Z,24.27
2018-09-06T05:32:08.132Z,22.43
2018-09-06T05:34:35.033Z,21.67
2018-09-06T05:37:01.912Z,23.60
2018-09-06T05:39:28.859Z,25.47
2018-09-06T05:41:55.741Z,23.40
2018-09-06T05:44:22.805Z,23.83
2018-09-06T05:46:49.786Z,23.83
2018-09-06T05:49:16.671Z,24.63
2018-09-06T05:51:43.545Z,23.73
2018-09-06T05:54:10.435Z,22.67
2018-09-06T05:56:37.337Z,23.53
2018-09-06T05:59:04.244Z,23.00
2018-09-06T06:01:31.409Z,22.33
2018-09-06T06:03:58.301Z,22.00
2018-09-06T06:06:25.188Z,22.90
2018-09-06T06:08:52.108Z,22.70
2018-09-06T06:11:19.761Z,21.50
2018-09-06T06:13:46.653Z,21.90
2018-09-06T06:16:13.929Z,22.10
2018-09-06T06:18:40.824Z,21.50
2018-09-06T06:21:07.728Z,21.83
2018-09-06T06:23:34.624Z,20.17
2018-09-06T06:26:01.613Z,20.17
2018-09-06T06:28:28.476Z,20.10
2018-09-06T06:30:55.389Z,20.53
2018-09-06T06:33:22.284Z,20.80
2018-09-06T06:35:49.216Z,18.90
2018-09-06T06:38:16.124Z,18.83
2018-09-06T06:40:43.021Z,17.37
2018-09-06T06:43:09.914Z,17.00
2018-09-06T06:45:36.816Z,17.77
2018-09-06T06:48:03.744Z,18.00
2018-09-06T06:50:30.707Z,17.60
2018-09-06T06:52:57.568Z,15.43
2018-09-06T06:55:24.485Z,15.07
2018-09-06T06:57:51.373Z,15.83
2018-09-06T07:00:19.992Z,16.37
2018-09-06T07:02:46.891Z,16.13
2018-09-06T07:05:13.789Z,14.67
2018-09-06T07:07:40.677Z,14.73
2018-09-06T07:10:07.600Z,14.30
2018-09-06T07:12:34.488Z,14.47
2018-09-06T07:15:01.442Z,14.43
2018-09-06T07:17:28.336Z,14.73
2018-09-06T07:19:55.213Z,14.97
2018-09-06T07:22:22.136Z,14.10
2018-09-06T07:24:49.045Z,14.80
2018-09-06T07:27:15.985Z,13.33
2018-09-06T07:29:42.880Z,13.87
2018-09-06T07:32:09.809Z,14.27
2018-09-06T07:34:36.716Z,14.03
2018-09-06T07:37:03.632Z,14.30
2018-09-06T07:39:30.542Z,13.73
2018-09-06T07:41:57.432Z,14.20
2018-09-06T07:44:24.311Z,13.87
2018-09-06T07:46:51.284Z,14.63
2018-09-06T07:49:18.116Z,15.60
2018-09-06T07:51:45.143Z,14.63
2018-09-06T07:54:11.925Z,16.53
2018-09-06T07:56:38.831Z,15.57
2018-09-06T07:59:05.733Z,18.27
2018-09-06T08:01:32.692Z,16.87
2018-09-06T08:03:59.586Z,16.63
2018-09-06T08:06:26.525Z,16.30
2018-09-06T08:08:53.429Z,16.63
2018-09-06T08:11:20.349Z,15.57
2018-09-06T08:13:47.300Z,15.17
2018-09-06T08:16:14.229Z,14.07
2018-09-06T08:18:41.144Z,14.10
2018-09-06T08:21:08.066Z,13.77
2018-09-06T08:23:34.965Z,13.50
2018-09-06T08:26:01.877Z,14.27
2018-09-06T08:28:28.767Z,14.40
2018-09-06T08:30:55.924Z,14.17
2018-09-06T08:33:22.641Z,14.57
2018-09-06T08:35:49.548Z,15.03
2018-09-06T08:38:16.460Z,14.50
2018-09-06T08:40:43.356Z,14.83
2018-09-06T08:43:10.277Z,15.23
2018-09-06T08:45:37.153Z,14.23
2018-09-06T08:48:04.064Z,14.67
2018-09-06T08:50:30.944Z,15.03
2018-09-06T08:52:57.872Z,15.47
2018-09-06T08:55:24.780Z,15.57
2018-09-06T08:57:51.665Z,15.73
2018-09-06T09:00:18.542Z,17.10
2018-09-06T09:02:45.598Z,17.33
2018-09-06T09:05:12.372Z,17.23
2018-09-06T09:07:39.395Z,17.27
2018-09-06T09:10:06.204Z,18.27
2018-09-06T09:12:33.192Z,17.00
2018-09-06T09:15:00.084Z,18.67
2018-09-06T09:17:26.996Z,18.40
2018-09-06T09:19:53.902Z,18.30
2018-09-06T09:22:20.853Z,17.30
2018-09-06T09:24:47.723Z,16.97
2018-09-06T09:27:14.665Z,16.20
2018-09-06T09:29:41.551Z,16.30
2018-09-06T09:32:08.484Z,16.70
2018-09-06T09:34:35.376Z,16.67
2018-09-06T09:37:02.300Z,17.67
2018-09-06T09:39:29.227Z,17.00
2018-09-06T09:41:56.156Z,18.67
2018-09-06T09:44:23.048Z,18.30
2018-09-06T09:49:16.421Z,16.80
2018-09-06T09:51:43.406Z,16.70
2018-09-06T09:54:10.321Z,15.80
2018-09-06T09:56:37.272Z,16.10
2018-09-06T09:59:04.212Z,15.30
2018-09-06T10:01:36.936Z,15.27
2018-09-06T10:04:09.604Z,15.03
2018-09-06T10:06:42.325Z,15.80
2018-09-06T10:09:15.116Z,14.43
2018-09-06T10:11:42.004Z,14.43
2018-09-06T10:14:08.912Z,14.40
2018-09-06T10:16:35.827Z,13.97
2018-09-06T10:19:02.758Z,14.97
2018-09-06T10:21:29.677Z,13.20
2018-09-06T10:23:56.632Z,13.03
2018-09-06T10:26:23.530Z,13.10
2018-09-06T10:28:50.436Z,12.93
2018-09-06T10:31:17.327Z,13.90
2018-09-06T10:33:44.241Z,14.87
2018-09-06T10:36:11.172Z,14.03
2018-09-06T10:38:38.080Z,12.57
2018-09-06T10:41:05.309Z,13.40
2018-09-06T10:43:32.251Z,12.53
2018-09-06T10:45:59.182Z,12.63
2018-09-06T10:48:26.097Z,12.43
2018-09-06T10:50:53.021Z,11.93
2018-09-06T10:53:19.936Z,12.07
2018-09-06T10:55:46.843Z,12.93
2018-09-06T10:58:13.756Z,10.70
2018-09-06T11:00:40.722Z,11.33
2018-09-06T11:03:07.647Z,11.33
2018-09-06T11:05:34.570Z,13.10
2018-09-06T11:08:01.559Z,13.20
2018-09-06T11:10:28.431Z,12.47
2018-09-06T11:12:55.312Z,10.83
2018-09-06T11:15:22.219Z,11.67
2018-09-06T11:17:49.128Z,11.67
2018-09-06T11:20:16.027Z,11.03
2018-09-06T11:22:43.162Z,10.93
2018-09-06T11:25:09.849Z,10.43
2018-09-06T11:27:36.825Z,10.97
2018-09-06T11:30:03.957Z,11.83
2018-09-06T11:32:30.912Z,12.90
2018-09-06T11:34:57.825Z,11.47
2018-09-06T11:37:24.724Z,10.53
2018-09-06T11:39:51.674Z,11.03
2018-09-06T11:42:18.573Z,9.60
2018-09-06T11:44:45.476Z,9.50
2018-09-06T11:47:12.417Z,11.17
2018-09-06T11:49:39.329Z,10.90
2018-09-06T11:52:06.772Z,10.67
2018-09-06T11:54:33.681Z,10.93
2018-09-06T11:57:00.586Z,10.20
2018-09-06T11:59:27.513Z,10.90
2018-09-06T12:01:54.415Z,9.37
2018-09-06T12:04:21.366Z,11.97
2018-09-06T12:06:48.283Z,11.17
2018-09-06T12:09:15.204Z,10.40
2018-09-06T12:11:42.093Z,11.60
2018-09-06T12:14:09.011Z,11.17
2018-09-06T12:16:35.925Z,11.00
2018-09-06T12:19:02.852Z,10.63
2018-09-06T12:21:29.769Z,12.17
2018-09-06T12:23:56.767Z,11.40
2018-09-06T12:26:23.754Z,11.50
2018-09-06T12:28:50.674Z,10.87
2018-09-06T12:31:17.599Z,10.33
2018-09-06T12:33:44.536Z,10.50
2018-09-06T12:36:11.484Z,9.87
2018-09-06T12:38:38.475Z,9.53
2018-09-06T12:41:05.389Z,10.10
2018-09-06T12:43:32.329Z,10.47
2018-09-06T12:45:59.260Z,10.30
2018-09-06T12:48:26.161Z,10.10
2018-09-06T12:50:53.099Z,9.80
2018-09-06T12:53:20.028Z,9.17
2018-09-06T12:55:47.004Z,10.07
2018-09-06T12:58:14.057Z,8.93
2018-09-06T13:00:40.996Z,8.90
2018-09-06T13:03:07.889Z,9.10
2018-09-06T13:05:34.796Z,9.07
2018-09-06T13:08:01.799Z,8.73
2018-09-06T13:10:28.653Z,8.83
2018-09-06T13:12:55.540Z,9.23
2018-09-06T13:15:22.456Z,8.77
2018-09-06T13:17:49.354Z,9.17
2018-09-06T13:20:16.244Z,7.50
2018-09-06T13:22:43.153Z,9.10
2018-09-06T13:27:43.711Z,8.77
2018-09-06T13:30:10.637Z,8.63
2018-09-06T13:32:37.535Z,8.10
2018-09-06T13:35:04.433Z,8.63
2018-09-06T13:37:31.345Z,8.60
2018-09-06T13:39:58.240Z,8.63
2018-09-06T13:42:25.139Z,8.57
2018-09-06T13:44:52.055Z,8.60
2018-09-06T13:47:18.968Z,8.00
2018-09-06T13:49:45.868Z,8.20
2018-09-06T13:52:12.832Z,8.17
2018-09-06T13:54:39.672Z,8.40
2018-09-06T13:57:06.613Z,8.37
2018-09-06T13:59:33.528Z,7.73
2018-09-06T14:02:00.501Z,7.87
2018-09-06T14:04:27.474Z,7.43
2018-09-06T14:06:54.357Z,7.53
2018-09-06T14:09:21.256Z,7.60
2018-09-06T14:11:48.229Z,7.17
2018-09-06T14:14:15.130Z,7.53
2018-09-06T14:16:42.094Z,7.10
2018-09-06T14:19:08.960Z,7.03
2018-09-06T14:21:35.874Z,7.10
2018-09-06T14:24:02.919Z,7.60
2018-09-06T14:26:29.813Z,7.13
2018-09-06T14:28:57.070Z,7.53
2018-09-06T14:31:23.989Z,6.97
2018-09-06T14:33:50.985Z,7.40
2018-09-06T14:36:17.905Z,6.80
2018-09-06T14:38:44.846Z,7.00
2018-09-06T14:41:11.737Z,6.53
2018-09-06T14:43:38.652Z,6.90
2018-09-06T14:46:05.567Z,7.20
2018-09-06T14:48:32.463Z,7.10
2018-09-06T14:50:59.497Z,7.57
2018-09-06T14:53:26.389Z,7.53
2018-09-06T14:55:53.295Z,6.77
2018-09-06T14:58:20.215Z,7.13
2018-09-06T15:00:47.129Z,6.40
2018-09-06T15:03:14.017Z,6.53
2018-09-06T15:05:40.906Z,6.53
2018-09-06T15:08:07.880Z,6.67
2018-09-06T15:10:34.724Z,6.90
2018-09-06T15:13:01.631Z,6.60
2018-09-06T15:15:28.528Z,6.47
2018-09-06T15:17:55.432Z,6.10
2018-09-06T15:20:22.341Z,6.00
2018-09-06T15:22:49.285Z,6.53
2018-09-06T15:25:16.183Z,6.50
2018-09-06T15:27:43.137Z,6.03
2018-09-06T15:30:10.022Z,6.37
2018-09-06T15:32:36.913Z,6.20
2018-09-06T15:35:03.848Z,6.17
2018-09-06T15:37:30.744Z,6.70
2018-09-06T15:39:57.640Z,6.37
2018-09-06T15:42:24.546Z,6.57
2018-09-06T15:44:51.464Z,6.47
2018-09-06T15:47:18.353Z,6.80
2018-09-06T15:49:45.296Z,6.70
2018-09-06T15:52:12.165Z,6.33
2018-09-06T15:54:39.070Z,6.10
2018-09-06T15:57:05.978Z,6.23
2018-09-06T15:59:32.865Z,5.60
2018-09-06T16:01:59.773Z,6.77
2018-09-06T16:04:26.656Z,6.33
2018-09-06T16:06:53.563Z,6.20
2018-09-06T16:09:20.456Z,6.73
2018-09-06T16:11:47.377Z,6.83
2018-09-06T16:14:14.273Z,6.73
2018-09-06T16:16:41.169Z,6.30
2018-09-06T16:19:08.240Z,6.53
2018-09-06T16:21:35.133Z,6.63
2018-09-06T16:24:02.072Z,6.30
2018-09-06T16:26:28.956Z,6.87
2018-09-06T16:28:55.864Z,6.53
2018-09-06T16:31:22.771Z,5.80
2018-09-06T16:33:49.690Z,6.63
2018-09-06T16:36:16.593Z,6.63
2018-09-06T16:38:43.477Z,6.47
2018-09-06T16:41:10.388Z,6.97
2018-09-06T16:43:37.289Z,6.73
2018-09-06T16:46:04.193Z,6.70
2018-09-06T16:48:31.092Z,6.57
2018-09-06T16:50:57.976Z,6.50
2018-09-06T16:53:24.876Z,6.60
2018-09-06T16:55:51.768Z,6.60
2018-09-06T16:58:18.664Z,6.63
2018-09-06T17:00:45.637Z,6.37
2018-09-06T17:03:12.484Z,7.13
2018-09-06T17:05:39.361Z,6.83
2018-09-06T17:08:06.286Z,7.13
2018-09-06T17:10:33.185Z,7.10
2018-09-06T17:13:00.121Z,7.60
2018-09-06T17:15:27.033Z,7.00
2018-09-06T17:17:53.925Z,7.43
2018-09-06T17:20:20.847Z,7.20
2018-09-06T17:22:47.760Z,7.37
2018-09-06T17:25:14.657Z,7.37
2018-09-06T17:27:41.572Z,7.00
2018-09-06T17:30:09.261Z,7.17
2018-09-06T17:32:36.201Z,7.40
2018-09-06T17:35:03.185Z,7.30
2018-09-06T17:37:30.089Z,7.80
2018-09-06T17:39:57.035Z,7.60
2018-09-06T17:42:23.974Z,8.17
2018-09-06T17:44:50.890Z,7.30
2018-09-06T17:47:17.810Z,7.83
2018-09-06T17:49:44.700Z,7.33
2018-09-06T17:52:11.858Z,7.50
2018-09-06T17:54:38.744Z,8.17
2018-09-06T17:57:05.687Z,7.00
2018-09-06T17:59:32.588Z,7.23
2018-09-06T18:01:59.509Z,7.00
2018-09-06T18:04:26.405Z,7.67
2018-09-06T18:06:53.308Z,7.27
2018-09-06T18:09:20.273Z,7.20
2018-09-06T18:11:47.227Z,7.90
2018-09-06T18:14:14.152Z,7.93
2018-09-06T18:16:41.056Z,7.43
2018-09-06T18:19:07.972Z,7.60
2018-09-06T18:21:34.888Z,7.50
2018-09-06T18:24:01.815Z,7.70
2018-09-06T18:26:28.748Z,7.90
2018-09-06T18:28:55.711Z,7.77
2018-09-06T18:31:22.680Z,8.13
2018-09-06T18:33:49.604Z,8.17
2018-09-06T18:36:16.528Z,7.80
2018-09-06T18:38:44.143Z,7.33
2018-09-06T18:41:11.056Z,8.17
2018-09-06T18:43:37.975Z,7.63
2018-09-06T18:46:04.865Z,7.27
2018-09-06T18:48:31.767Z,7.80
2018-09-06T18:50:58.661Z,8.00
2018-09-06T18:53:25.565Z,7.47
2018-09-06T18:55:52.480Z,7.67
2018-09-06T18:58:19.377Z,7.90
2018-09-06T19:00:46.277Z,7.70
2018-09-06T19:03:13.217Z,7.57
2018-09-06T19:05:40.225Z,7.73
2018-09-06T19:08:07.136Z,7.57
2018-09-06T19:10:34.028Z,7.70
2018-09-06T19:13:00.908Z,8.03
2018-09-06T19:15:27.804Z,7.97
2018-09-06T19:17:54.743Z,7.97
2018-09-06T19:20:21.741Z,7.53
2018-09-06T19:22:48.651Z,7.97
2018-09-06T19:25:15.563Z,7.90
2018-09-06T19:27:42.472Z,7.20
2018-09-06T19:30:09.432Z,7.83
2018-09-06T19:32:36.334Z,7.63
2018-09-06T19:35:03.268Z,7.60
2018-09-06T19:37:30.152Z,8.00
2018-09-06T19:39:57.116Z,7.30
2018-09-06T19:42:23.991Z,7.80
2018-09-06T19:44:50.885Z,7.30
2018-09-06T19:47:17.784Z,7.53
2018-09-06T19:49:44.688Z,7.77
2018-09-06T19:52:11.585Z,7.67
2018-09-06T19:54:38.483Z,7.53
2018-09-06T19:57:05.473Z,7.43
2018-09-06T19:59:32.375Z,8.10
2018-09-06T20:01:59.308Z,8.50
2018-09-06T20:04:26.245Z,7.90
2018-09-06T20:06:53.264Z,8.60
2018-09-06T20:09:20.248Z,8.33
2018-09-06T20:11:47.322Z,8.03
2018-09-06T20:14:14.222Z,8.70
2018-09-06T20:16:41.254Z,8.50
2018-09-06T20:19:08.107Z,8.97
2018-09-06T20:21:35.000Z,8.57
2018-09-06T20:24:01.930Z,8.43
2018-09-06T20:26:28.838Z,9.10
2018-09-06T20:28:55.942Z,9.27
2018-09-06T20:31:22.825Z,9.13
2018-09-06T20:33:49.763Z,9.47
2018-09-06T20:36:16.608Z,8.80
2018-09-06T20:38:43.516Z,9.57
2018-09-06T20:41:10.432Z,10.13
2018-09-06T20:43:37.377Z,9.67
2018-09-06T20:46:04.268Z,9.43
2018-09-06T20:48:31.160Z,9.57
2018-09-06T20:50:58.104Z,9.87
2018-09-06T20:53:25.046Z,10.03
2018-09-06T20:55:52.357Z,9.23
2018-09-06T20:58:19.537Z,9.77
2018-09-06T21:00:46.449Z,10.00
2018-09-06T21:03:13.501Z,9.13
2018-09-06T21:05:41.396Z,9.43
2018-09-06T21:08:08.887Z,9.50
2018-09-06T21:10:35.847Z,9.67
2018-09-06T21:13:02.709Z,10.13
2018-09-06T21:15:29.714Z,10.00
2018-09-06T21:17:56.596Z,9.97
2018-09-06T21:20:24.300Z,10.10
2018-09-06T21:22:51.216Z,9.97
2018-09-06T21:25:18.113Z,9.83
2018-09-06T21:27:45.025Z,9.77
2018-09-06T21:30:11.955Z,10.73
2018-09-06T21:32:38.873Z,10.13
2018-09-06T21:35:05.786Z,11.10
2018-09-06T21:37:33.513Z,9.87
2018-09-06T21:40:00.480Z,10.07
2018-09-06T21:42:27.329Z,10.20
2018-09-06T21:44:54.222Z,11.07
2018-09-06T21:47:21.116Z,10.53
2018-09-06T21:49:48.005Z,10.63
2018-09-06T21:52:14.900Z,10.57
2018-09-06T21:54:41.789Z,11.20
2018-09-06T21:57:08.681Z,11.77
2018-09-06T21:59:35.577Z,11.80
2018-09-06T22:02:02.496Z,12.73
2018-09-06T22:04:29.388Z,13.03
2018-09-06T22:06:56.339Z,11.67
2018-09-06T22:09:23.248Z,12.60
2018-09-06T22:11:50.180Z,12.60
2018-09-06T22:14:17.108Z,13.80
2018-09-06T22:16:44.051Z,13.30
2018-09-06T22:19:10.963Z,13.73
2018-09-06T22:21:37.972Z,13.17
2018-09-06T22:24:04.914Z,13.40
2018-09-06T22:26:31.849Z,12.90
2018-09-06T22:28:58.800Z,13.77
2018-09-06T22:31:25.760Z,14.20
2018-09-06T22:33:52.681Z,15.23
2018-09-06T22:36:19.600Z,15.33
2018-09-06T22:38:46.536Z,14.57
2018-09-06T22:41:13.440Z,15.63
2018-09-06T22:43:40.374Z,16.03
2018-09-06T22:46:07.316Z,16.93
2018-09-06T22:48:34.266Z,18.07
2018-09-06T22:51:01.879Z,17.20
2018-09-06T22:53:28.916Z,18.53
2018-09-06T22:55:55.859Z,16.93
2018-09-06T22:58:22.781Z,18.30
2018-09-06T23:00:49.696Z,18.17
2018-09-06T23:03:22.389Z,17.97
2018-09-06T23:05:49.296Z,18.77
2018-09-06T23:08:16.225Z,19.43
2018-09-06T23:10:43.119Z,20.93
2018-09-06T23:13:10.045Z,19.63
2018-09-06T23:15:36.966Z,20.40
2018-09-06T23:18:03.913Z,20.17
2018-09-06T23:20:30.809Z,21.83
2018-09-06T23:22:57.726Z,21.13
2018-09-06T23:25:24.624Z,20.63
2018-09-06T23:27:51.547Z,22.07
2018-09-06T23:30:18.444Z,20.93
2018-09-06T23:32:45.341Z,21.53
2018-09-06T23:35:12.215Z,22.90
2018-09-06T23:37:39.105Z,22.27
2018-09-06T23:40:06.011Z,24.10
2018-09-06T23:42:32.897Z,20.17
2018-09-06T23:44:59.814Z,21.07
2018-09-06T23:47:26.725Z,20.87
2018-09-06T23:49:53.613Z,20.80
2018-09-06T23:52:20.972Z,20.47
2018-09-06T23:54:48.244Z,19.73
2018-09-06T23:57:15.120Z,20.13
2018-09-06T23:59:42.029Z,19.93
